Airfield :
LOGIN :

Register | Disclaimer

   EN    FR    IT 

 










Legend :    VFR   Marginal VFR   IFR   Intensive IFR   Very Intensive IFR
Visi :
Ceiling :
>= 8 km
>= 3000ft
5 to 8 km
1000 to 3000 ft
1500m to 5 km
500 to 1000 ft
800 to 1500m
200 to 500 ft
< 800m
< 200 ft
Symbols :   Thunderstorms  Fog  Heavy snow  Heavy precipitations  Wind > 20 kt
SIGMETs :     Misc.  Thunderstorms  Icing  Turbulence  Mountain Waves  Volcanic Ashes






- Airport Elevation : 117 ft
- IATA code : NWI


EGSH - Norwich

CURRENT METAR :
  • 311750Z AUTO 06005KT 320V090 9999 SCT036/// BKN044/// 19/15 Q1008

EXPIRED METARs :
  • 311720Z AUTO 28007KT 9999 BKN037/// 21/13 Q1008
  • 311650Z 25008KT 9999 VCSH SCT037TCU 20/14 Q1008 TEMPO SHRA
  • 311620Z 25009KT 220V290 9999 VCSH FEW037 SCT048 22/13 Q1008 TEMPO SHRA
  • 311550Z 23009KT 200V270 9999 VCSH FEW035 21/14 Q1008 TEMPO SHRA
  • 311520Z 24012KT 210V270 9999 VCSH SCT030 22/14 Q1008 TEMPO SHRA

TAF TAF EGSH
Valid from the 31 at 18:00 until the 01 at 03:00 UTC


311653Z 3118/0103 27007KT 9999 SCT035
TEMPO 3118/3121 8000 SHRA
PROB30
TEMPO 3118/3120 4000 +SHRAGS BKN012 BKN020CB
ATIS : +44 1603 420 640



MET'MAP, your aeronautical weather chart ! - Copyright ORBIFLY December 2007 - Disclaimer

ORBIFLY MET'MAP TEAM :

Programming & Development : Alexandra Zaïnal
Concept & original design : Baudouin d'Aumeries
Assistance for programming : Marc-Olivier Méhu
Technical & hardware support : Manuel Goepfert

Contact : metmap@orbifly.com




SOURCES & CREDITS :

   NOAA